sensor_id;sensor_type;location;lat;lon;timestamp;pressure;altitude;pressure_sealevel;temperature;humidity
43480;BME280;29067;35.492;-97.520;2024-03-22T00:02:25;96827.17;;;11.33;95.23
43480;BME280;29067;35.492;-97.520;2024-03-22T00:04:53;96826.70;;;11.27;94.50
43480;BME280;29067;35.492;-97.520;2024-03-22T00:07:25;96826.75;;;11.21;93.76
43480;BME280;29067;35.492;-97.520;2024-03-22T00:09:55;96834.92;;;11.35;96.17
43480;BME280;29067;35.492;-97.520;2024-03-22T00:12:23;96836.55;;;12.24;92.95
43480;BME280;29067;35.492;-97.520;2024-03-22T00:14:53;96839.94;;;11.40;93.14
43480;BME280;29067;35.492;-97.520;2024-03-22T00:17:21;96840.26;;;11.71;93.19
43480;BME280;29067;35.492;-97.520;2024-03-22T00:19:51;96842.46;;;11.42;94.44
43480;BME280;29067;35.492;-97.520;2024-03-22T00:22:22;96838.09;;;12.07;93.60
43480;BME280;29067;35.492;-97.520;2024-03-22T00:24:52;96838.16;;;11.04;95.80
43480;BME280;29067;35.492;-97.520;2024-03-22T00:27:21;96840.15;;;11.92;91.72
43480;BME280;29067;35.492;-97.520;2024-03-22T00:29:51;96845.23;;;12.26;90.11
43480;BME280;29067;35.492;-97.520;2024-03-22T00:32:19;96843.48;;;11.73;90.82
43480;BME280;29067;35.492;-97.520;2024-03-22T00:34:47;96842.33;;;11.65;89.71
43480;BME280;29067;35.492;-97.520;2024-03-22T00:37:15;96839.06;;;11.60;89.96
43480;BME280;29067;35.492;-97.520;2024-03-22T00:39:43;96842.77;;;10.90;93.37
43480;BME280;29067;35.492;-97.520;2024-03-22T00:42:15;96842.40;;;10.89;93.41
43480;BME280;29067;35.492;-97.520;2024-03-22T00:44:43;96843.16;;;11.20;94.79
43480;BME280;29067;35.492;-97.520;2024-03-22T00:47:13;96846.48;;;11.53;93.94
43480;BME280;29067;35.492;-97.520;2024-03-22T00:49:42;96845.96;;;10.79;93.00
43480;BME280;29067;35.492;-97.520;2024-03-22T00:52:10;96849.14;;;11.65;90.61
43480;BME280;29067;35.492;-97.520;2024-03-22T00:54:42;96849.98;;;11.82;93.16
43480;BME280;29067;35.492;-97.520;2024-03-22T00:57:11;96854.81;;;12.08;91.82
43480;BME280;29067;35.492;-97.520;2024-03-22T00:59:39;96853.85;;;11.99;93.27
43480;BME280;29067;35.492;-97.520;2024-03-22T01:02:07;96851.00;;;11.19;94.84
43480;BME280;29067;35.492;-97.520;2024-03-22T01:04:35;96850.71;;;11.15;95.18
43480;BME280;29067;35.492;-97.520;2024-03-22T01:07:03;96849.81;;;11.94;92.29
43480;BME280;29067;35.492;-97.520;2024-03-22T01:09:31;96851.94;;;11.28;97.07
43480;BME280;29067;35.492;-97.520;2024-03-22T01:11:59;96854.30;;;11.89;93.72
43480;BME280;29067;35.492;-97.520;2024-03-22T01:14:28;96855.39;;;12.46;90.65
43480;BME280;29067;35.492;-97.520;2024-03-22T01:16:56;96857.22;;;12.41;90.17
43480;BME280;29067;35.492;-97.520;2024-03-22T01:19:26;96861.14;;;11.52;95.03
43480;BME280;29067;35.492;-97.520;2024-03-22T01:21:54;96860.87;;;11.84;93.58
43480;BME280;29067;35.492;-97.520;2024-03-22T01:24:22;96864.64;;;11.18;91.55
43480;BME280;29067;35.492;-97.520;2024-03-22T01:26:50;96865.84;;;12.02;90.53
43480;BME280;29067;35.492;-97.520;2024-03-22T01:29:20;96868.85;;;12.26;90.29
43480;BME280;29067;35.492;-97.520;2024-03-22T01:31:48;96869.74;;;11.33;91.46
43480;BME280;29067;35.492;-97.520;2024-03-22T01:34:16;96869.95;;;11.09;94.00
43480;BME280;29067;35.492;-97.520;2024-03-22T01:36:47;96871.13;;;11.97;93.01
43480;BME280;29067;35.492;-97.520;2024-03-22T01:39:21;96874.22;;;12.18;91.25
43480;BME280;29067;35.492;-97.520;2024-03-22T01:41:49;96876.14;;;12.32;90.92
43480;BME280;29067;35.492;-97.520;2024-03-22T01:44:17;96877.68;;;12.87;89.48
43480;BME280;29067;35.492;-97.520;2024-03-22T01:46:45;96882.23;;;11.70;90.95
43480;BME280;29067;35.492;-97.520;2024-03-22T01:49:16;96879.42;;;12.01;93.68
43480;BME280;29067;35.492;-97.520;2024-03-22T01:51:44;96881.55;;;11.46;96.83
43480;BME280;29067;35.492;-97.520;2024-03-22T01:54:12;96878.58;;;11.68;93.45
43480;BME280;29067;35.492;-97.520;2024-03-22T01:56:40;96880.63;;;11.39;94.36
43480;BME280;29067;35.492;-97.520;2024-03-22T01:59:09;96880.61;;;12.01;93.95
43480;BME280;29067;35.492;-97.520;2024-03-22T02:01:37;96880.77;;;11.55;91.89
43480;BME280;29067;35.492;-97.520;2024-03-22T02:04:05;96884.84;;;11.74;92.74
43480;BME280;29067;35.492;-97.520;2024-03-22T02:06:34;96888.01;;;11.91;91.43
43480;BME280;29067;35.492;-97.520;2024-03-22T02:09:05;96892.20;;;10.69;94.56
43480;BME280;29067;35.492;-97.520;2024-03-22T02:11:33;96896.77;;;11.42;96.44
43480;BME280;29067;35.492;-97.520;2024-03-22T02:14:01;96902.75;;;10.52;100.00
43480;BME280;29067;35.492;-97.520;2024-03-22T02:16:30;96901.15;;;10.55;100.00
43480;BME280;29067;35.492;-97.520;2024-03-22T02:18:58;96904.49;;;10.27;100.00
43480;BME280;29067;35.492;-97.520;2024-03-22T02:21:25;96906.59;;;9.46;100.00
43480;BME280;29067;35.492;-97.520;2024-03-22T02:23:53;96907.31;;;10.23;100.00
43480;BME280;29067;35.492;-97.520;2024-03-22T02:26:22;96908.14;;;9.36;100.00
43480;BME280;29067;35.492;-97.520;2024-03-22T02:28:50;96903.05;;;10.15;100.00
43480;BME280;29067;35.492;-97.520;2024-03-22T02:31:17;96905.03;;;10.24;100.00
43480;BME280;29067;35.492;-97.520;2024-03-22T02:33:45;96908.62;;;10.52;100.00
43480;BME280;29067;35.492;-97.520;2024-03-22T02:36:13;96906.25;;;10.26;100.00
43480;BME280;29067;35.492;-97.520;2024-03-22T02:38:41;96906.83;;;10.58;100.00
43480;BME280;29067;35.492;-97.520;2024-03-22T02:41:09;96903.68;;;11.01;100.00
43480;BME280;29067;35.492;-97.520;2024-03-22T02:43:37;96911.54;;;9.15;100.00
43480;BME280;29067;35.492;-97.520;2024-03-22T02:46:06;96913.58;;;9.29;100.00
43480;BME280;29067;35.492;-97.520;2024-03-22T02:48:35;96914.00;;;10.38;100.00
43480;BME280;29067;35.492;-97.520;2024-03-22T02:51:04;96918.50;;;9.97;100.00
43480;BME280;29067;35.492;-97.520;2024-03-22T02:53:32;96921.09;;;9.89;100.00
43480;BME280;29067;35.492;-97.520;2024-03-22T02:56:00;96920.02;;;10.30;100.00
43480;BME280;29067;35.492;-97.520;2024-03-22T02:58:28;96920.18;;;11.34;100.00
43480;BME280;29067;35.492;-97.520;2024-03-22T03:00:57;96913.01;;;11.00;96.13
43480;BME280;29067;35.492;-97.520;2024-03-22T03:03:25;96911.73;;;10.35;100.00
43480;BME280;29067;35.492;-97.520;2024-03-22T03:05:54;96908.17;;;11.56;96.16
43480;BME280;29067;35.492;-97.520;2024-03-22T03:08:22;96909.97;;;10.99;96.18
43480;BME280;29067;35.492;-97.520;2024-03-22T03:10:50;96907.55;;;11.41;94.47
43480;BME280;29067;35.492;-97.520;2024-03-22T03:13:18;96913.16;;;11.10;94.57
43480;BME280;29067;35.492;-97.520;2024-03-22T03:15:46;96911.02;;;11.52;92.10
43480;BME280;29067;35.492;-97.520;2024-03-22T03:18:15;96915.74;;;10.24;97.92
43480;BME280;29067;35.492;-97.520;2024-03-22T03:20:43;96920.92;;;10.14;99.79
43480;BME280;29067;35.492;-97.520;2024-03-22T03:23:11;96918.47;;;11.10;94.18
43480;BME280;29067;35.492;-97.520;2024-03-22T03:25:41;96923.08;;;9.88;100.00
43480;BME280;29067;35.492;-97.520;2024-03-22T03:28:09;96918.07;;;10.03;98.99
43480;BME280;29067;35.492;-97.520;2024-03-22T03:30:37;96917.74;;;9.80;100.00
43480;BME280;29067;35.492;-97.520;2024-03-22T03:33:05;96915.34;;;10.58;97.49
43480;BME280;29067;35.492;-97.520;2024-03-22T03:35:33;96915.11;;;9.65;100.00
43480;BME280;29067;35.492;-97.520;2024-03-22T03:38:01;96913.50;;;10.37;99.13
43480;BME280;29067;35.492;-97.520;2024-03-22T03:40:29;96913.03;;;10.70;100.00
43480;BME280;29067;35.492;-97.520;2024-03-22T03:42:56;96911.40;;;10.40;100.00
43480;BME280;29067;35.492;-97.520;2024-03-22T03:45:25;96906.75;;;10.36;100.00
43480;BME280;29067;35.492;-97.520;2024-03-22T03:47:53;96908.34;;;10.75;99.18
43480;BME280;29067;35.492;-97.520;2024-03-22T03:50:21;96903.87;;;10.98;96.75
43480;BME280;29067;35.492;-97.520;2024-03-22T03:52:49;96906.46;;;10.93;94.97
43480;BME280;29067;35.492;-97.520;2024-03-22T03:55:17;96904.11;;;11.91;94.31
43480;BME280;29067;35.492;-97.520;2024-03-22T03:57:45;96903.77;;;11.42;91.78
43480;BME280;29067;35.492;-97.520;2024-03-22T04:00:13;96904.24;;;10.97;91.50
43480;BME280;29067;35.492;-97.520;2024-03-22T04:02:41;96901.25;;;10.39;96.28
43480;BME280;29067;35.492;-97.520;2024-03-22T04:05:09;96901.32;;;10.58;98.38
43480;BME280;29067;35.492;-97.520;2024-03-22T04:07:37;96899.47;;;10.25;99.26
43480;BME280;29067;35.492;-97.520;2024-03-22T04:10:06;96895.30;;;10.35;98.75
43480;BME280;29067;35.492;-97.520;2024-03-22T04:12:34;96893.79;;;10.36;98.39
43480;BME280;29067;35.492;-97.520;2024-03-22T04:15:03;96893.81;;;10.67;100.00
43480;BME280;29067;35.492;-97.520;2024-03-22T04:17:32;96892.09;;;10.32;97.56
43480;BME280;29067;35.492;-97.520;2024-03-22T04:20:00;96891.83;;;10.82;96.27
43480;BME280;29067;35.492;-97.520;2024-03-22T04:22:28;96890.51;;;10.18;99.10
43480;BME280;29067;35.492;-97.520;2024-03-22T04:24:55;96891.20;;;10.40;99.46
43480;BME280;29067;35.492;-97.520;2024-03-22T04:27:23;96890.06;;;10.17;100.00
43480;BME280;29067;35.492;-97.520;2024-03-22T04:29:51;96888.43;;;9.86;99.78
43480;BME280;29067;35.492;-97.520;2024-03-22T04:32:19;96884.85;;;10.71;96.19
43480;BME280;29067;35.492;-97.520;2024-03-22T04:34:47;96887.84;;;10.08;99.37
43480;BME280;29067;35.492;-97.520;2024-03-22T04:37:14;96888.08;;;9.94;97.61
43480;BME280;29067;35.492;-97.520;2024-03-22T04:39:46;96884.53;;;10.45;96.32
43480;BME280;29067;35.492;-97.520;2024-03-22T04:42:14;96882.00;;;10.95;96.29
43480;BME280;29067;35.492;-97.520;2024-03-22T04:44:42;96883.92;;;9.05;100.00
43480;BME280;29067;35.492;-97.520;2024-03-22T04:47:10;96877.89;;;10.74;100.00
43480;BME280;29067;35.492;-97.520;2024-03-22T04:49:38;96872.19;;;10.04;99.93
43480;BME280;29067;35.492;-97.520;2024-03-22T04:52:06;96868.95;;;10.28;99.17
43480;BME280;29067;35.492;-97.520;2024-03-22T04:54:34;96865.90;;;10.30;97.39
43480;BME280;29067;35.492;-97.520;2024-03-22T04:57:02;96864.37;;;10.24;99.41
43480;BME280;29067;35.492;-97.520;2024-03-22T04:59:30;96861.50;;;10.92;96.07
43480;BME280;29067;35.492;-97.520;2024-03-22T05:01:57;96864.21;;;11.25;96.03
43480;BME280;29067;35.492;-97.520;2024-03-22T05:04:26;96862.33;;;11.26;91.67
43480;BME280;29067;35.492;-97.520;2024-03-22T05:06:54;96866.28;;;10.44;93.83
43480;BME280;29067;35.492;-97.520;2024-03-22T05:09:22;96859.94;;;10.95;92.70
43480;BME280;29067;35.492;-97.520;2024-03-22T05:11:50;96859.48;;;12.00;89.09
43480;BME280;29067;35.492;-97.520;2024-03-22T05:14:19;96855.49;;;11.57;89.13
43480;BME280;29067;35.492;-97.520;2024-03-22T05:16:46;96851.70;;;11.92;87.17
43480;BME280;29067;35.492;-97.520;2024-03-22T05:19:14;96851.41;;;12.02;86.10
43480;BME280;29067;35.492;-97.520;2024-03-22T05:21:42;96856.86;;;10.16;93.71
43480;BME280;29067;35.492;-97.520;2024-03-22T05:24:10;96847.72;;;10.82;92.14
43480;BME280;29067;35.492;-97.520;2024-03-22T05:26:38;96848.90;;;10.96;91.97
43480;BME280;29067;35.492;-97.520;2024-03-22T05:29:06;96845.39;;;11.31;91.33
43480;BME280;29067;35.492;-97.520;2024-03-22T05:31:46;96850.30;;;10.38;92.88
43480;BME280;29067;35.492;-97.520;2024-03-22T05:34:14;96857.53;;;10.10;97.86
43480;BME280;29067;35.492;-97.520;2024-03-22T05:36:43;96858.37;;;9.78;100.00
43480;BME280;29067;35.492;-97.520;2024-03-22T05:39:10;96852.04;;;10.88;92.71
43480;BME280;29067;35.492;-97.520;2024-03-22T05:41:38;96851.12;;;11.35;88.26
43480;BME280;29067;35.492;-97.520;2024-03-22T05:44:07;96854.59;;;10.38;93.13
43480;BME280;29067;35.492;-97.520;2024-03-22T05:46:36;96856.88;;;10.23;94.72
43480;BME280;29067;35.492;-97.520;2024-03-22T05:49:04;96855.48;;;9.32;98.19
43480;BME280;29067;35.492;-97.520;2024-03-22T05:51:32;96851.65;;;10.69;93.20
43480;BME280;29067;35.492;-97.520;2024-03-22T05:53:59;96847.69;;;10.48;92.47
43480;BME280;29067;35.492;-97.520;2024-03-22T05:56:27;96853.99;;;9.76;100.00
43480;BME280;29067;35.492;-97.520;2024-03-22T05:58:55;96851.49;;;9.39;98.83
43480;BME280;29067;35.492;-97.520;2024-03-22T06:01:23;96848.73;;;10.05;99.43
43480;BME280;29067;35.492;-97.520;2024-03-22T06:03:51;96846.99;;;9.98;100.00
43480;BME280;29067;35.492;-97.520;2024-03-22T06:06:19;96841.63;;;9.86;100.00
43480;BME280;29067;35.492;-97.520;2024-03-22T06:08:47;96835.98;;;10.79;99.90
43480;BME280;29067;35.492;-97.520;2024-03-22T06:11:15;96835.41;;;9.76;100.00
43480;BME280;29067;35.492;-97.520;2024-03-22T06:13:43;96836.78;;;10.12;100.00
43480;BME280;29067;35.492;-97.520;2024-03-22T06:16:12;96837.79;;;10.54;98.20
43480;BME280;29067;35.492;-97.520;2024-03-22T06:18:40;96834.75;;;10.86;94.04
43480;BME280;29067;35.492;-97.520;2024-03-22T06:21:08;96846.12;;;9.76;99.66
43480;BME280;29067;35.492;-97.520;2024-03-22T06:23:36;96844.56;;;9.39;100.00
43480;BME280;29067;35.492;-97.520;2024-03-22T06:26:05;96842.81;;;10.31;100.00
43480;BME280;29067;35.492;-97.520;2024-03-22T06:28:32;96843.66;;;9.30;100.00
43480;BME280;29067;35.492;-97.520;2024-03-22T06:31:01;96832.79;;;11.09;93.76
43480;BME280;29067;35.492;-97.520;2024-03-22T06:33:29;96833.37;;;10.07;96.70
43480;BME280;29067;35.492;-97.520;2024-03-22T06:35:57;96831.86;;;10.16;100.00
43480;BME280;29067;35.492;-97.520;2024-03-22T06:38:26;96828.06;;;9.84;97.50
43480;BME280;29067;35.492;-97.520;2024-03-22T06:40:54;96832.16;;;8.99;100.00
43480;BME280;29067;35.492;-97.520;2024-03-22T06:43:22;96829.35;;;10.55;98.04
43480;BME280;29067;35.492;-97.520;2024-03-22T06:45:51;96830.02;;;9.36;100.00
43480;BME280;29067;35.492;-97.520;2024-03-22T06:48:18;96821.43;;;9.96;100.00
43480;BME280;29067;35.492;-97.520;2024-03-22T06:50:47;96815.75;;;9.97;100.00
43480;BME280;29067;35.492;-97.520;2024-03-22T06:53:14;96812.11;;;10.58;97.73
43480;BME280;29067;35.492;-97.520;2024-03-22T06:55:42;96812.62;;;10.35;100.00
43480;BME280;29067;35.492;-97.520;2024-03-22T06:58:10;96814.88;;;8.81;100.00
43480;BME280;29067;35.492;-97.520;2024-03-22T07:00:38;96812.01;;;8.98;100.00
43480;BME280;29067;35.492;-97.520;2024-03-22T07:03:06;96805.89;;;9.86;100.00
43480;BME280;29067;35.492;-97.520;2024-03-22T07:05:34;96804.78;;;9.95;100.00
43480;BME280;29067;35.492;-97.520;2024-03-22T07:08:03;96807.16;;;9.44;100.00
43480;BME280;29067;35.492;-97.520;2024-03-22T07:10:31;96804.08;;;10.76;96.14
43480;BME280;29067;35.492;-97.520;2024-03-22T07:12:59;96803.65;;;10.48;99.64
43480;BME280;29067;35.492;-97.520;2024-03-22T07:15:27;96797.61;;;10.44;96.04
43480;BME280;29067;35.492;-97.520;2024-03-22T07:17:55;96800.27;;;10.77;95.26
43480;BME280;29067;35.492;-97.520;2024-03-22T07:20:22;96801.27;;;10.70;91.40
43480;BME280;29067;35.492;-97.520;2024-03-22T07:22:50;96807.06;;;9.42;95.94
43480;BME280;29067;35.492;-97.520;2024-03-22T07:25:18;96799.53;;;10.72;90.50
43480;BME280;29067;35.492;-97.520;2024-03-22T07:27:46;96803.72;;;9.56;97.20
43480;BME280;29067;35.492;-97.520;2024-03-22T07:30:14;96799.01;;;9.29;98.19
43480;BME280;29067;35.492;-97.520;2024-03-22T07:32:42;96800.00;;;9.45;99.45
43480;BME280;29067;35.492;-97.520;2024-03-22T07:35:11;96791.39;;;10.47;92.17
43480;BME280;29067;35.492;-97.520;2024-03-22T07:37:39;96796.49;;;8.15;100.00
43480;BME280;29067;35.492;-97.520;2024-03-22T07:40:07;96785.95;;;10.65;95.03
43480;BME280;29067;35.492;-97.520;2024-03-22T07:42:35;96782.51;;;10.62;91.04
43480;BME280;29067;35.492;-97.520;2024-03-22T07:45:04;96791.55;;;9.62;100.00
43480;BME280;29067;35.492;-97.520;2024-03-22T07:47:32;96794.33;;;9.49;97.17
43480;BME280;29067;35.492;-97.520;2024-03-22T07:50:00;96789.64;;;9.61;95.77
43480;BME280;29067;35.492;-97.520;2024-03-22T07:52:28;96792.07;;;8.67;100.00
43480;BME280;29067;35.492;-97.520;2024-03-22T07:54:56;96791.94;;;10.27;99.94
43480;BME280;29067;35.492;-97.520;2024-03-22T07:57:24;96786.39;;;10.95;95.00
43480;BME280;29067;35.492;-97.520;2024-03-22T07:59:52;96787.99;;;10.53;92.92
43480;BME280;29067;35.492;-97.520;2024-03-22T08:02:21;96787.36;;;10.78;91.10
43480;BME280;29067;35.492;-97.520;2024-03-22T08:04:48;96787.26;;;10.88;88.94
43480;BME280;29067;35.492;-97.520;2024-03-22T08:07:17;96791.09;;;10.57;92.26
43480;BME280;29067;35.492;-97.520;2024-03-22T08:09:45;96788.66;;;10.43;93.50
43480;BME280;29067;35.492;-97.520;2024-03-22T08:12:13;96788.82;;;10.15;93.77
43480;BME280;29067;35.492;-97.520;2024-03-22T08:14:41;96791.77;;;9.66;96.92
43480;BME280;29067;35.492;-97.520;2024-03-22T08:17:10;96782.78;;;11.25;90.73
43480;BME280;29067;35.492;-97.520;2024-03-22T08:19:39;96780.89;;;10.40;93.41
43480;BME280;29067;35.492;-97.520;2024-03-22T08:22:06;96776.45;;;10.67;93.76
43480;BME280;29067;35.492;-97.520;2024-03-22T08:24:34;96773.18;;;10.69;91.25
43480;BME280;29067;35.492;-97.520;2024-03-22T08:27:02;96772.31;;;10.44;95.20
43480;BME280;29067;35.492;-97.520;2024-03-22T08:29:30;96777.48;;;9.78;100.00
43480;BME280;29067;35.492;-97.520;2024-03-22T08:31:58;96773.48;;;10.14;97.26
43480;BME280;29067;35.492;-97.520;2024-03-22T08:34:26;96769.35;;;10.06;98.07
43480;BME280;29067;35.492;-97.520;2024-03-22T08:36:54;96772.94;;;8.90;100.00
43480;BME280;29067;35.492;-97.520;2024-03-22T08:39:22;96775.20;;;8.89;100.00
43480;BME280;29067;35.492;-97.520;2024-03-22T08:41:50;96779.83;;;9.51;100.00
43480;BME280;29067;35.492;-97.520;2024-03-22T08:44:18;96781.91;;;9.39;100.00
43480;BME280;29067;35.492;-97.520;2024-03-22T08:46:46;96783.63;;;9.44;100.00
43480;BME280;29067;35.492;-97.520;2024-03-22T08:49:14;96778.17;;;8.80;100.00
43480;BME280;29067;35.492;-97.520;2024-03-22T08:51:42;96771.96;;;9.45;100.00
43480;BME280;29067;35.492;-97.520;2024-03-22T08:54:10;96766.92;;;10.42;99.63
43480;BME280;29067;35.492;-97.520;2024-03-22T08:56:38;96769.12;;;8.98;100.00
43480;BME280;29067;35.492;-97.520;2024-03-22T08:59:06;96762.50;;;11.12;97.58
43480;BME280;29067;35.492;-97.520;2024-03-22T09:01:34;96759.04;;;10.74;93.69
43480;BME280;29067;35.492;-97.520;2024-03-22T09:04:02;96763.07;;;9.80;96.75
43480;BME280;29067;35.492;-97.520;2024-03-22T09:06:30;96761.39;;;10.60;94.14
43480;BME280;29067;35.492;-97.520;2024-03-22T09:08:58;96758.64;;;10.24;96.35
43480;BME280;29067;35.492;-97.520;2024-03-22T09:11:26;96758.78;;;11.02;91.71
43480;BME280;29067;35.492;-97.520;2024-03-22T09:13:55;96754.68;;;11.91;86.53
43480;BME280;29067;35.492;-97.520;2024-03-22T09:16:23;96759.14;;;11.94;85.44
43480;BME280;29067;35.492;-97.520;2024-03-22T09:18:51;96759.94;;;10.75;89.82
43480;BME280;29067;35.492;-97.520;2024-03-22T09:21:19;96759.55;;;11.08;89.15
43480;BME280;29067;35.492;-97.520;2024-03-22T09:23:47;96757.88;;;10.43;90.94
43480;BME280;29067;35.492;-97.520;2024-03-22T09:26:15;96759.54;;;10.58;89.62
43480;BME280;29067;35.492;-97.520;2024-03-22T09:28:46;96760.72;;;10.64;91.25
43480;BME280;29067;35.492;-97.520;2024-03-22T09:31:14;96761.38;;;10.05;90.97
43480;BME280;29067;35.492;-97.520;2024-03-22T09:33:41;96764.30;;;11.27;85.70
43480;BME280;29067;35.492;-97.520;2024-03-22T09:36:09;96768.21;;;10.22;91.26
43480;BME280;29067;35.492;-97.520;2024-03-22T09:38:37;96771.05;;;9.53;99.09
43480;BME280;29067;35.492;-97.520;2024-03-22T09:41:06;96772.67;;;9.97;99.21
43480;BME280;29067;35.492;-97.520;2024-03-22T09:43:35;96768.19;;;10.96;91.23
43480;BME280;29067;35.492;-97.520;2024-03-22T09:46:06;96772.23;;;11.41;86.85
43480;BME280;29067;35.492;-97.520;2024-03-22T09:48:35;96776.65;;;9.76;90.79
43480;BME280;29067;35.492;-97.520;2024-03-22T09:51:04;96771.74;;;11.12;88.39
43480;BME280;29067;35.492;-97.520;2024-03-22T09:53:32;96779.92;;;9.52;96.45
43480;BME280;29067;35.492;-97.520;2024-03-22T09:56:01;96780.67;;;10.09;94.66
43480;BME280;29067;35.492;-97.520;2024-03-22T09:58:30;96781.79;;;9.78;92.94
43480;BME280;29067;35.492;-97.520;2024-03-22T10:00:57;96775.10;;;11.17;89.49
43480;BME280;29067;35.492;-97.520;2024-03-22T10:03:25;96776.40;;;10.84;88.50
43480;BME280;29067;35.492;-97.520;2024-03-22T10:05:53;96790.41;;;9.25;96.67
43480;BME280;29067;35.492;-97.520;2024-03-22T10:08:21;96784.67;;;11.26;88.52
43480;BME280;29067;35.492;-97.520;2024-03-22T10:10:49;96782.18;;;11.27;86.54
43480;BME280;29067;35.492;-97.520;2024-03-22T10:13:18;96781.07;;;12.33;82.59
43480;BME280;29067;35.492;-97.520;2024-03-22T10:15:46;96783.33;;;10.43;85.92
43480;BME280;29067;35.492;-97.520;2024-03-22T10:18:15;96780.80;;;10.29;86.35
43480;BME280;29067;35.492;-97.520;2024-03-22T10:20:43;96779.17;;;11.14;83.87
43480;BME280;29067;35.492;-97.520;2024-03-22T10:23:11;96779.21;;;10.47;88.90
43480;BME280;29067;35.492;-97.520;2024-03-22T10:25:39;96778.83;;;10.61;86.64
43480;BME280;29067;35.492;-97.520;2024-03-22T10:28:08;96782.62;;;11.77;81.79
43480;BME280;29067;35.492;-97.520;2024-03-22T10:30:36;96782.25;;;11.65;78.30
43480;BME280;29067;35.492;-97.520;2024-03-22T10:33:07;96789.49;;;11.03;82.28
43480;BME280;29067;35.492;-97.520;2024-03-22T10:35:35;96788.07;;;12.00;77.83
43480;BME280;29067;35.492;-97.520;2024-03-22T10:38:04;96790.76;;;12.20;76.91
43480;BME280;29067;35.492;-97.520;2024-03-22T10:40:33;96794.04;;;12.34;77.01
43480;BME280;29067;35.492;-97.520;2024-03-22T10:43:02;96795.62;;;11.90;75.84
43480;BME280;29067;35.492;-97.520;2024-03-22T10:45:30;96802.31;;;11.67;77.87
43480;BME280;29067;35.492;-97.520;2024-03-22T10:47:58;96799.14;;;12.80;73.94
43480;BME280;29067;35.492;-97.520;2024-03-22T10:50:26;96802.57;;;13.08;70.89
43480;BME280;29067;35.492;-97.520;2024-03-22T10:53:00;96806.39;;;12.79;73.63
43480;BME280;29067;35.492;-97.520;2024-03-22T10:55:33;96808.73;;;13.24;72.17
43480;BME280;29067;35.492;-97.520;2024-03-22T10:58:01;96811.01;;;12.82;73.07
43480;BME280;29067;35.492;-97.520;2024-03-22T11:00:31;96812.03;;;12.14;75.17
43480;BME280;29067;35.492;-97.520;2024-03-22T11:03:02;96814.78;;;12.29;75.95
43480;BME280;29067;35.492;-97.520;2024-03-22T11:05:30;96819.86;;;12.33;76.35
43480;BME280;29067;35.492;-97.520;2024-03-22T11:08:00;96823.45;;;12.00;77.49
43480;BME280;29067;35.492;-97.520;2024-03-22T11:10:30;96819.08;;;12.41;74.67
43480;BME280;29067;35.492;-97.520;2024-03-22T11:13:09;96819.25;;;13.12;72.01
43480;BME280;29067;35.492;-97.520;2024-03-22T11:15:38;96820.30;;;12.12;74.08
43480;BME280;29067;35.492;-97.520;2024-03-22T11:18:06;96816.74;;;12.49;72.91
43480;BME280;29067;35.492;-97.520;2024-03-22T11:20:37;96817.30;;;12.72;73.53
43480;BME280;29067;35.492;-97.520;2024-03-22T11:23:05;96819.76;;;11.07;77.03
43480;BME280;29067;35.492;-97.520;2024-03-22T11:25:34;96817.95;;;12.93;72.64
43480;BME280;29067;35.492;-97.520;2024-03-22T11:28:03;96824.78;;;11.05;77.60
43480;BME280;29067;35.492;-97.520;2024-03-22T11:30:33;96821.44;;;11.96;75.14
43480;BME280;29067;35.492;-97.520;2024-03-22T11:33:02;96821.91;;;12.23;74.62
43480;BME280;29067;35.492;-97.520;2024-03-22T11:35:29;96821.77;;;11.75;76.07
43480;BME280;29067;35.492;-97.520;2024-03-22T11:37:58;96822.81;;;11.30;77.32
43480;BME280;29067;35.492;-97.520;2024-03-22T11:40:26;96825.30;;;10.82;78.44
43480;BME280;29067;35.492;-97.520;2024-03-22T11:42:56;96829.11;;;9.92;85.32
43480;BME280;29067;35.492;-97.520;2024-03-22T11:45:26;96821.66;;;10.23;82.19
43480;BME280;29067;35.492;-97.520;2024-03-22T11:47:54;96817.98;;;10.82;81.67
43480;BME280;29067;35.492;-97.520;2024-03-22T11:50:22;96819.16;;;9.83;85.56
43480;BME280;29067;35.492;-97.520;2024-03-22T11:52:51;96814.67;;;9.37;89.05
43480;BME280;29067;35.492;-97.520;2024-03-22T11:55:20;96820.79;;;10.30;92.21
43480;BME280;29067;35.492;-97.520;2024-03-22T11:57:49;96828.22;;;10.32;89.21
43480;BME280;29067;35.492;-97.520;2024-03-22T12:03:00;96827.67;;;10.03;89.66
43480;BME280;29067;35.492;-97.520;2024-03-22T12:05:30;96827.25;;;10.12;88.23
43480;BME280;29067;35.492;-97.520;2024-03-22T12:07:58;96833.35;;;9.34;91.20
43480;BME280;29067;35.492;-97.520;2024-03-22T12:10:27;96835.12;;;10.25;88.93
43480;BME280;29067;35.492;-97.520;2024-03-22T12:12:54;96838.08;;;11.15;85.84
43480;BME280;29067;35.492;-97.520;2024-03-22T12:15:23;96840.21;;;11.09;84.09
43480;BME280;29067;35.492;-97.520;2024-03-22T12:17:51;96843.55;;;11.07;81.23
43480;BME280;29067;35.492;-97.520;2024-03-22T12:20:19;96847.81;;;10.14;82.58
43480;BME280;29067;35.492;-97.520;2024-03-22T12:22:47;96854.64;;;11.94;78.91
43480;BME280;29067;35.492;-97.520;2024-03-22T12:25:15;96858.21;;;11.66;77.98
43480;BME280;29067;35.492;-97.520;2024-03-22T12:27:43;96859.85;;;11.34;76.94
43480;BME280;29067;35.492;-97.520;2024-03-22T12:30:11;96861.72;;;11.61;76.41
43480;BME280;29067;35.492;-97.520;2024-03-22T12:32:40;96868.57;;;10.38;83.57
43480;BME280;29067;35.492;-97.520;2024-03-22T12:35:09;96866.69;;;12.72;75.91
43480;BME280;29067;35.492;-97.520;2024-03-22T12:37:36;96873.71;;;12.73;73.32
43480;BME280;29067;35.492;-97.520;2024-03-22T12:40:05;96882.50;;;13.17;73.53
43480;BME280;29067;35.492;-97.520;2024-03-22T12:42:34;96885.33;;;12.78;72.82
43480;BME280;29067;35.492;-97.520;2024-03-22T12:45:01;96886.24;;;12.45;74.36
43480;BME280;29067;35.492;-97.520;2024-03-22T12:47:29;96885.54;;;12.20;74.28
43480;BME280;29067;35.492;-97.520;2024-03-22T12:49:57;96887.12;;;13.53;70.16